• Join FlightAware (Why Join?)
  • Login
  • US Flag 
03:37AM EST


 

Airport Tracker/Info


-or-


 

Live Flight TrackerFlight Track Log ✈ MTN7955 ✈ 02-May-2013 ✈ KSHV - KAFW

Flight Track Log - Related Links

Times and Time Zones

All times are in EDT time to prevent confusion due to time zone crossing. See the MTN7955 flight status page for this flight to view local times or setup timezone preferences in your user account.

Time Position Orientation Groundspeed Altitude Reporting Facility
EDT Latitude Longitude Course Direction KTS MPH feet Rate Location/Type
11:53PM 32.4506 -93.8364 306° West 122 140 1,000  Level Fort Worth Center
11:54PM 32.4725 -93.8725 306° West 148 170 2,800 1,560 Climbing Fort Worth Center
11:55PM 32.4639 -93.9344 261° West 196 226 4,400 1,560 Climbing Fort Worth Center
11:57PM 32.4644 -94.0303 270° West 189 217 7,000 1,500 Climbing Fort Worth Center
11:58PM 32.4597 -94.0919 265° West 194 223 8,400 1,380 Climbing Fort Worth Center
11:59PM 32.4572 -94.1536 267° West 193 222 9,800 1,200 Climbing Fort Worth Center
12:00AM 32.4525 -94.2178 265° West 193 222 10,900 1,140 Climbing Fort Worth Center
12:01AM 32.4500 -94.2794 267° West 198 228 12,100 1,080 Climbing Fort Worth Center
12:02AM 32.4453 -94.3436 265° West 198 228 13,100 1,020 Climbing Fort Worth Center
12:03AM 32.4425 -94.4053 267° West 198 228 14,200 960 Climbing Fort Worth Center
12:04AM 32.4378 -94.4719 265° West 198 228 15,100 900 Climbing Fort Worth Center
12:05AM 32.4331 -94.5361 265° West 198 228 16,000 420 Climbing Fort Worth Center
12:06AM 32.4286 -94.6075 266° West 210 242 16,000  Level Fort Worth Center
12:07AM 32.4197 -94.6817 262° West 228 262 16,000 -60 Level Fort Worth Center
12:08AM 32.4131 -94.7631 264° West 240 276 15,900 -60 Descending Fort Worth Center
12:09AM 32.4064 -94.8469 265° West 253 291 15,900  Level Fort Worth Center
12:10AM 32.3914 -94.9286 258° West 258 297 16,000  Climbing Fort Worth Center
12:11AM 32.3928 -95.0072 271° West 258 297 16,000 -60 Level Fort Worth Center
12:12AM 32.3883 -95.0911 266° West 258 297 15,900 -60 Descending Fort Worth Center
12:13AM 32.3814 -95.1747 264° West 258 297 15,900  Level Fort Worth Center
12:14AM 32.3786 -95.2561 268° West 253 291 15,900 60 Level Fort Worth Center
12:15AM 32.3736 -95.3372 266° West 253 291 16,100 60 Climbing Fort Worth Center
12:16AM 32.3667 -95.4186 264° West 258 297 16,100  Level Fort Worth Center
12:17AM 32.3639 -95.5000 268° West 253 291 16,100 -600 Level Fort Worth Center
12:18AM 32.3567 -95.5861 264° West 258 297 15,000 -1,200 Descending Fort Worth Center
12:19AM 32.3536 -95.6647 267° West 258 297 13,700 -1,500 Descending Fort Worth Center
12:20AM 32.3464 -95.7486 264° West 258 297 12,100 -1,620 Descending Fort Worth Center
12:21AM 32.3411 -95.8297 266° West 258 297 10,500 -1,560 Descending Fort Worth Center
12:22AM 32.3319 -95.9258 264° West 258 297 9,000 -1,200 Descending Fort Worth Center
12:23AM 32.3267 -96.0119 266° West 264 304 8,100 -540 Descending Fort Worth Center
12:24AM 32.3211 -96.0908 265° West 264 304 8,000 -60 Descending Fort Worth Center
12:25AM 32.3158 -96.1867 266° West 269 310 8,000  Level Fort Worth Center
12:26AM 32.3083 -96.2631 263° West 269 310 8,000  Level Fort Worth Center
12:27AM 32.3028 -96.3589 266° West 269 310 8,000  Level Fort Worth Center
12:28AM 32.2953 -96.4353 263° West 269 310 8,000  Level Fort Worth Center
12:29AM 32.2897 -96.5286 266° West 269 310 8,000  Level Fort Worth Center
12:30AM 32.2983 -96.6022 278° West 262 302 8,000  Level Fort Worth Center
12:31AM 32.3406 -96.6806 303° West 252 290 8,000  Level Fort Worth Center
12:32AM 32.3639 -96.7517 291° West 252 290 8,000 -240 Level Fort Worth Center
12:33AM 32.3917 -96.8400 290° West 257 296 7,600 -720 Descending Fort Worth Center
12:34AM 32.4294 -96.9064 304° West 246 283 6,600 -960 Descending Fort Worth Center
12:35AM 32.4672 -96.9725 304° West 246 283 5,700 -1,020 Descending Fort Worth Center
12:36AM 32.5008 -97.0342 303° West 236 272 4,600 -900 Descending Fort Worth Center
12:37AM 32.5386 -97.0831 313° West 217 250 4,000 -600 Descending Fort Worth Center
12:38AM 32.5764 -97.1372 310° West 205 236 3,500 -540 Descending Fort Worth Center
12:39AM 32.6161 -97.1864 314° West 205 236 3,000 -300 Descending Fort Worth Center
12:40AM 32.6600 -97.2258 323° Northwest 195 224 3,000  Level Fort Worth Center
12:42AM 32.7667 -97.2667 342° North 178 205 3,000  Level Dallas / Fort Worth TRACON
12:43AM 32.8167 -97.2833 344° North 160 184 3,000  Level Dallas / Fort Worth TRACON
12:44AM 32.8500 -97.2833 360° North 168 193 3,000 -300 Level Dallas / Fort Worth TRACON
12:45AM 32.8833 -97.3000 337° Northwest 107 123 2,400 -600 Descending Dallas / Fort Worth TRACON
12:46AM 32.9167 -97.3000 360° North 113 130 1,900 -600 Descending Dallas / Fort Worth TRACON
12:47AM 32.9500 -97.3000 360° North 87 100 1,300 -600 Descending Dallas / Fort Worth TRACON
12:49AM 32.9833 -97.3167 341° North  Level FlightAware Approximate
12:56AM 32.9876 -97.3188 341° North  Level Estimated